sensor_id;sensor_type;location;lat;lon;timestamp;temperature;humidity
67157;SHT31;54086;50.126;8.710;2023-12-28T00:02:09;6.13;91.21
67157;SHT31;54086;50.126;8.710;2023-12-28T00:04:34;6.10;91.03
67157;SHT31;54086;50.126;8.710;2023-12-28T00:07:02;6.07;91.14
67157;SHT31;54086;50.126;8.710;2023-12-28T00:09:27;6.13;91.15
67157;SHT31;54086;50.126;8.710;2023-12-28T00:11:54;6.07;91.16
67157;SHT31;54086;50.126;8.710;2023-12-28T00:14:20;6.03;91.17
67157;SHT31;54086;50.126;8.710;2023-12-28T00:16:45;6.01;91.17
67157;SHT31;54086;50.126;8.710;2023-12-28T00:19:11;6.09;91.08
67157;SHT31;54086;50.126;8.710;2023-12-28T00:21:37;6.06;90.92
67157;SHT31;54086;50.126;8.710;2023-12-28T00:24:02;6.06;90.91
67157;SHT31;54086;50.126;8.710;2023-12-28T00:26:29;6.06;90.86
67157;SHT31;54086;50.126;8.710;2023-12-28T00:28:54;6.06;90.87
67157;SHT31;54086;50.126;8.710;2023-12-28T00:31:19;6.07;90.71
67157;SHT31;54086;50.126;8.710;2023-12-28T00:33:45;6.10;90.62
67157;SHT31;54086;50.126;8.710;2023-12-28T00:36:11;6.14;90.58
67157;SHT31;54086;50.126;8.710;2023-12-28T00:38:37;6.20;90.28
67157;SHT31;54086;50.126;8.710;2023-12-28T00:41:02;6.14;90.22
67157;SHT31;54086;50.126;8.710;2023-12-28T00:43:28;6.11;90.36
67157;SHT31;54086;50.126;8.710;2023-12-28T00:45:54;6.14;90.27
67157;SHT31;54086;50.126;8.710;2023-12-28T00:48:19;6.17;89.97
67157;SHT31;54086;50.126;8.710;2023-12-28T00:50:45;6.17;89.80
67157;SHT31;54086;50.126;8.710;2023-12-28T00:53:10;6.21;89.49
67157;SHT31;54086;50.126;8.710;2023-12-28T00:55:36;6.24;89.35
67157;SHT31;54086;50.126;8.710;2023-12-28T00:58:02;6.24;89.25
67157;SHT31;54086;50.126;8.710;2023-12-28T01:00:27;6.24;89.34
67157;SHT31;54086;50.126;8.710;2023-12-28T01:02:54;6.27;89.03
67157;SHT31;54086;50.126;8.710;2023-12-28T01:05:19;6.27;88.98
67157;SHT31;54086;50.126;8.710;2023-12-28T01:07:49;6.24;88.88
67157;SHT31;54086;50.126;8.710;2023-12-28T01:10:15;6.28;88.52
67157;SHT31;54086;50.126;8.710;2023-12-28T01:12:40;6.31;88.27
67157;SHT31;54086;50.126;8.710;2023-12-28T01:15:06;6.44;87.84
67157;SHT31;54086;50.126;8.710;2023-12-28T01:17:33;6.49;87.53
67157;SHT31;54086;50.126;8.710;2023-12-28T01:19:59;6.51;87.41
67157;SHT31;54086;50.126;8.710;2023-12-28T01:22:27;6.61;87.02
67157;SHT31;54086;50.126;8.710;2023-12-28T01:24:53;6.67;86.50
67157;SHT31;54086;50.126;8.710;2023-12-28T01:27:19;6.71;86.19
67157;SHT31;54086;50.126;8.710;2023-12-28T01:29:44;6.79;86.06
67157;SHT31;54086;50.126;8.710;2023-12-28T01:32:10;6.86;85.57
67157;SHT31;54086;50.126;8.710;2023-12-28T01:34:36;6.95;85.35
67157;SHT31;54086;50.126;8.710;2023-12-28T01:37:01;6.99;84.85
67157;SHT31;54086;50.126;8.710;2023-12-28T01:39:27;7.06;84.68
67157;SHT31;54086;50.126;8.710;2023-12-28T01:41:53;7.11;84.35
67157;SHT31;54086;50.126;8.710;2023-12-28T01:44:19;7.19;84.11
67157;SHT31;54086;50.126;8.710;2023-12-28T01:46:44;7.20;83.82
67157;SHT31;54086;50.126;8.710;2023-12-28T01:49:10;7.24;83.75
67157;SHT31;54086;50.126;8.710;2023-12-28T01:51:36;7.28;83.51
67157;SHT31;54086;50.126;8.710;2023-12-28T01:54:02;7.38;83.09
67157;SHT31;54086;50.126;8.710;2023-12-28T01:56:27;7.43;83.03
67157;SHT31;54086;50.126;8.710;2023-12-28T01:58:53;7.51;82.52
67157;SHT31;54086;50.126;8.710;2023-12-28T02:01:19;7.58;82.19
67157;SHT31;54086;50.126;8.710;2023-12-28T02:03:45;7.62;81.98
67157;SHT31;54086;50.126;8.710;2023-12-28T02:06:13;7.67;81.96
67157;SHT31;54086;50.126;8.710;2023-12-28T02:08:41;7.67;81.95
67157;SHT31;54086;50.126;8.710;2023-12-28T02:11:06;7.69;81.75
67157;SHT31;54086;50.126;8.710;2023-12-28T02:13:32;7.71;81.85
67157;SHT31;54086;50.126;8.710;2023-12-28T02:16:06;7.74;81.65
67157;SHT31;54086;50.126;8.710;2023-12-28T02:18:38;7.75;81.51
67157;SHT31;54086;50.126;8.710;2023-12-28T02:21:06;7.82;81.28
67157;SHT31;54086;50.126;8.710;2023-12-28T02:23:34;7.88;81.10
67157;SHT31;54086;50.126;8.710;2023-12-28T02:26:00;7.89;81.15
67157;SHT31;54086;50.126;8.710;2023-12-28T02:28:26;7.93;80.81
67157;SHT31;54086;50.126;8.710;2023-12-28T02:30:51;7.99;80.65
67157;SHT31;54086;50.126;8.710;2023-12-28T02:33:24;7.99;80.69
67157;SHT31;54086;50.126;8.710;2023-12-28T02:35:58;8.00;80.50
67157;SHT31;54086;50.126;8.710;2023-12-28T02:38:24;8.05;80.41
67157;SHT31;54086;50.126;8.710;2023-12-28T02:40:50;8.09;80.50
67157;SHT31;54086;50.126;8.710;2023-12-28T02:43:16;8.09;80.41
67157;SHT31;54086;50.126;8.710;2023-12-28T02:45:42;8.14;80.47
67157;SHT31;54086;50.126;8.710;2023-12-28T02:48:07;8.13;80.28
67157;SHT31;54086;50.126;8.710;2023-12-28T02:50:34;8.14;80.22
67157;SHT31;54086;50.126;8.710;2023-12-28T02:53:00;8.17;80.14
67157;SHT31;54086;50.126;8.710;2023-12-28T02:55:25;8.20;80.09
67157;SHT31;54086;50.126;8.710;2023-12-28T02:57:52;8.22;79.99
67157;SHT31;54086;50.126;8.710;2023-12-28T03:00:20;8.26;79.99
67157;SHT31;54086;50.126;8.710;2023-12-28T03:02:46;8.22;80.16
67157;SHT31;54086;50.126;8.710;2023-12-28T03:05:11;8.22;80.30
67157;SHT31;54086;50.126;8.710;2023-12-28T03:07:36;8.26;80.34
67157;SHT31;54086;50.126;8.710;2023-12-28T03:10:02;8.25;80.61
67157;SHT31;54086;50.126;8.710;2023-12-28T03:12:29;8.28;80.06
67157;SHT31;54086;50.126;8.710;2023-12-28T03:14:54;8.23;80.27
67157;SHT31;54086;50.126;8.710;2023-12-28T03:17:20;8.23;80.18
67157;SHT31;54086;50.126;8.710;2023-12-28T03:19:45;8.22;80.26
67157;SHT31;54086;50.126;8.710;2023-12-28T03:22:11;8.23;80.61
67157;SHT31;54086;50.126;8.710;2023-12-28T03:24:37;8.23;80.94
67157;SHT31;54086;50.126;8.710;2023-12-28T03:27:04;8.22;81.26
67157;SHT31;54086;50.126;8.710;2023-12-28T03:29:29;8.23;81.49
67157;SHT31;54086;50.126;8.710;2023-12-28T03:31:54;8.23;81.62
67157;SHT31;54086;50.126;8.710;2023-12-28T03:34:20;8.25;81.65
67157;SHT31;54086;50.126;8.710;2023-12-28T03:36:45;8.23;81.82
67157;SHT31;54086;50.126;8.710;2023-12-28T03:39:10;8.25;81.57
67157;SHT31;54086;50.126;8.710;2023-12-28T03:41:36;8.22;81.70
67157;SHT31;54086;50.126;8.710;2023-12-28T03:44:01;8.22;81.67
67157;SHT31;54086;50.126;8.710;2023-12-28T03:46:27;8.23;81.82
67157;SHT31;54086;50.126;8.710;2023-12-28T03:48:53;8.23;81.86
67157;SHT31;54086;50.126;8.710;2023-12-28T03:51:18;8.22;81.84
67157;SHT31;54086;50.126;8.710;2023-12-28T03:53:44;8.20;81.99
67157;SHT31;54086;50.126;8.710;2023-12-28T03:56:23;8.28;82.14
67157;SHT31;54086;50.126;8.710;2023-12-28T03:58:49;8.25;82.28
67157;SHT31;54086;50.126;8.710;2023-12-28T04:01:19;8.25;82.64
67157;SHT31;54086;50.126;8.710;2023-12-28T04:03:45;8.25;82.77
67157;SHT31;54086;50.126;8.710;2023-12-28T04:06:11;8.26;82.98
67157;SHT31;54086;50.126;8.710;2023-12-28T04:08:38;8.26;83.07
67157;SHT31;54086;50.126;8.710;2023-12-28T04:11:03;8.29;83.25
67157;SHT31;54086;50.126;8.710;2023-12-28T04:13:29;8.29;83.46
67157;SHT31;54086;50.126;8.710;2023-12-28T04:15:54;8.23;83.72
67157;SHT31;54086;50.126;8.710;2023-12-28T04:18:19;8.25;83.95
67157;SHT31;54086;50.126;8.710;2023-12-28T04:20:45;8.30;84.35
67157;SHT31;54086;50.126;8.710;2023-12-28T04:23:10;8.32;84.53
67157;SHT31;54086;50.126;8.710;2023-12-28T04:25:36;8.32;84.89
67157;SHT31;54086;50.126;8.710;2023-12-28T04:28:02;8.36;85.03
67157;SHT31;54086;50.126;8.710;2023-12-28T04:30:27;8.33;85.37
67157;SHT31;54086;50.126;8.710;2023-12-28T04:32:53;8.34;85.53
67157;SHT31;54086;50.126;8.710;2023-12-28T04:35:18;8.34;85.73
67157;SHT31;54086;50.126;8.710;2023-12-28T04:37:44;8.36;85.81
67157;SHT31;54086;50.126;8.710;2023-12-28T04:40:10;8.34;85.93
67157;SHT31;54086;50.126;8.710;2023-12-28T04:42:35;8.36;86.08
67157;SHT31;54086;50.126;8.710;2023-12-28T04:45:01;8.34;86.18
67157;SHT31;54086;50.126;8.710;2023-12-28T04:47:26;8.36;86.25
67157;SHT31;54086;50.126;8.710;2023-12-28T04:49:51;8.39;86.24
67157;SHT31;54086;50.126;8.710;2023-12-28T04:52:17;8.41;86.26
67157;SHT31;54086;50.126;8.710;2023-12-28T04:54:42;8.41;86.38
67157;SHT31;54086;50.126;8.710;2023-12-28T04:57:08;8.44;86.47
67157;SHT31;54086;50.126;8.710;2023-12-28T04:59:40;8.44;86.70
67157;SHT31;54086;50.126;8.710;2023-12-28T05:02:06;8.46;86.87
67157;SHT31;54086;50.126;8.710;2023-12-28T05:04:31;8.51;87.06
67157;SHT31;54086;50.126;8.710;2023-12-28T05:06:57;8.53;87.30
67157;SHT31;54086;50.126;8.710;2023-12-28T05:09:23;8.49;87.49
67157;SHT31;54086;50.126;8.710;2023-12-28T05:11:51;8.54;87.77
67157;SHT31;54086;50.126;8.710;2023-12-28T05:14:16;8.54;88.19
67157;SHT31;54086;50.126;8.710;2023-12-28T05:16:42;8.61;88.18
67157;SHT31;54086;50.126;8.710;2023-12-28T05:19:07;8.61;88.51
67157;SHT31;54086;50.126;8.710;2023-12-28T05:21:34;8.59;88.82
67157;SHT31;54086;50.126;8.710;2023-12-28T05:23:59;8.59;89.00
67157;SHT31;54086;50.126;8.710;2023-12-28T05:26:24;8.56;89.41
67157;SHT31;54086;50.126;8.710;2023-12-28T05:28:51;8.54;89.67
67157;SHT31;54086;50.126;8.710;2023-12-28T05:31:17;8.54;89.87
67157;SHT31;54086;50.126;8.710;2023-12-28T05:33:42;8.57;90.01
67157;SHT31;54086;50.126;8.710;2023-12-28T05:36:08;8.60;90.11
67157;SHT31;54086;50.126;8.710;2023-12-28T05:38:34;8.61;90.44
67157;SHT31;54086;50.126;8.710;2023-12-28T05:40:59;8.61;90.90
67157;SHT31;54086;50.126;8.710;2023-12-28T05:43:25;8.65;91.19
67157;SHT31;54086;50.126;8.710;2023-12-28T05:45:51;8.65;91.33
67157;SHT31;54086;50.126;8.710;2023-12-28T05:48:16;8.68;91.52
67157;SHT31;54086;50.126;8.710;2023-12-28T05:50:42;8.72;91.77
67157;SHT31;54086;50.126;8.710;2023-12-28T05:53:07;8.77;91.81
67157;SHT31;54086;50.126;8.710;2023-12-28T05:55:36;8.81;91.86
67157;SHT31;54086;50.126;8.710;2023-12-28T05:58:05;8.77;92.14
67157;SHT31;54086;50.126;8.710;2023-12-28T06:00:31;8.80;92.29
67157;SHT31;54086;50.126;8.710;2023-12-28T06:02:56;8.80;92.31
67157;SHT31;54086;50.126;8.710;2023-12-28T06:05:22;8.81;92.45
67157;SHT31;54086;50.126;8.710;2023-12-28T06:07:47;8.77;92.70
67157;SHT31;54086;50.126;8.710;2023-12-28T06:10:12;8.75;92.91
67157;SHT31;54086;50.126;8.710;2023-12-28T06:12:39;8.75;92.98
67157;SHT31;54086;50.126;8.710;2023-12-28T06:15:05;8.78;93.10
67157;SHT31;54086;50.126;8.710;2023-12-28T06:17:30;8.77;93.04
67157;SHT31;54086;50.126;8.710;2023-12-28T06:19:56;8.80;93.14
67157;SHT31;54086;50.126;8.710;2023-12-28T06:22:21;8.75;93.24
67157;SHT31;54086;50.126;8.710;2023-12-28T06:24:47;8.77;93.41
67157;SHT31;54086;50.126;8.710;2023-12-28T06:27:12;8.71;93.56
67157;SHT31;54086;50.126;8.710;2023-12-28T06:29:37;8.71;93.63
67157;SHT31;54086;50.126;8.710;2023-12-28T06:32:03;8.70;93.70
67157;SHT31;54086;50.126;8.710;2023-12-28T06:34:29;8.70;93.68
67157;SHT31;54086;50.126;8.710;2023-12-28T06:36:54;8.70;93.79
67157;SHT31;54086;50.126;8.710;2023-12-28T06:39:19;8.67;93.84
67157;SHT31;54086;50.126;8.710;2023-12-28T06:41:48;8.68;93.91
67157;SHT31;54086;50.126;8.710;2023-12-28T06:44:14;8.68;94.01
67157;SHT31;54086;50.126;8.710;2023-12-28T06:46:40;8.71;94.06
67157;SHT31;54086;50.126;8.710;2023-12-28T06:49:05;8.68;94.04
67157;SHT31;54086;50.126;8.710;2023-12-28T06:51:31;8.65;94.10
67157;SHT31;54086;50.126;8.710;2023-12-28T06:53:57;8.68;94.15
67157;SHT31;54086;50.126;8.710;2023-12-28T06:56:22;8.70;94.20
67157;SHT31;54086;50.126;8.710;2023-12-28T06:58:48;8.71;94.22
67157;SHT31;54086;50.126;8.710;2023-12-28T07:01:13;8.74;94.26
67157;SHT31;54086;50.126;8.710;2023-12-28T07:03:39;8.75;94.22
67157;SHT31;54086;50.126;8.710;2023-12-28T07:06:05;8.70;94.33
67157;SHT31;54086;50.126;8.710;2023-12-28T07:08:31;8.74;94.37
67157;SHT31;54086;50.126;8.710;2023-12-28T07:10:56;8.77;94.46
67157;SHT31;54086;50.126;8.710;2023-12-28T07:13:22;8.78;94.38
67157;SHT31;54086;50.126;8.710;2023-12-28T07:15:48;8.84;94.30
67157;SHT31;54086;50.126;8.710;2023-12-28T07:18:13;8.87;94.35
67157;SHT31;54086;50.126;8.710;2023-12-28T07:20:38;8.82;94.35
67157;SHT31;54086;50.126;8.710;2023-12-28T07:23:04;8.88;94.31
67157;SHT31;54086;50.126;8.710;2023-12-28T07:25:29;8.88;94.36
67157;SHT31;54086;50.126;8.710;2023-12-28T07:27:55;8.92;94.36
67157;SHT31;54086;50.126;8.710;2023-12-28T07:30:20;8.92;94.35
67157;SHT31;54086;50.126;8.710;2023-12-28T07:32:45;8.93;94.37
67157;SHT31;54086;50.126;8.710;2023-12-28T07:35:12;8.97;94.35
67157;SHT31;54086;50.126;8.710;2023-12-28T07:37:37;8.97;94.33
67157;SHT31;54086;50.126;8.710;2023-12-28T07:40:03;8.98;94.36
67157;SHT31;54086;50.126;8.710;2023-12-28T07:42:29;9.04;94.33
67157;SHT31;54086;50.126;8.710;2023-12-28T07:44:55;9.11;94.17
67157;SHT31;54086;50.126;8.710;2023-12-28T07:47:20;9.09;94.20
67157;SHT31;54086;50.126;8.710;2023-12-28T07:49:46;9.09;94.25
67157;SHT31;54086;50.126;8.710;2023-12-28T07:52:11;9.09;94.19
67157;SHT31;54086;50.126;8.710;2023-12-28T07:54:37;9.11;94.26
67157;SHT31;54086;50.126;8.710;2023-12-28T07:57:02;9.16;94.13
67157;SHT31;54086;50.126;8.710;2023-12-28T07:59:28;9.16;94.16
67157;SHT31;54086;50.126;8.710;2023-12-28T08:01:53;9.19;94.09
67157;SHT31;54086;50.126;8.710;2023-12-28T08:04:19;9.20;94.03
67157;SHT31;54086;50.126;8.710;2023-12-28T08:06:44;9.23;93.94
67157;SHT31;54086;50.126;8.710;2023-12-28T08:09:09;9.20;94.03
67157;SHT31;54086;50.126;8.710;2023-12-28T08:11:38;9.29;93.82
67157;SHT31;54086;50.126;8.710;2023-12-28T08:14:03;9.26;93.78
67157;SHT31;54086;50.126;8.710;2023-12-28T08:16:28;9.28;93.75
67157;SHT31;54086;50.126;8.710;2023-12-28T08:18:54;9.28;93.86
67157;SHT31;54086;50.126;8.710;2023-12-28T08:21:19;9.26;93.70
67157;SHT31;54086;50.126;8.710;2023-12-28T08:23:45;9.26;93.77
67157;SHT31;54086;50.126;8.710;2023-12-28T08:26:10;9.26;93.79
67157;SHT31;54086;50.126;8.710;2023-12-28T08:28:36;9.29;93.67
67157;SHT31;54086;50.126;8.710;2023-12-28T08:31:02;9.30;93.66
67157;SHT31;54086;50.126;8.710;2023-12-28T08:33:27;9.32;93.60
67157;SHT31;54086;50.126;8.710;2023-12-28T08:35:53;9.30;93.62
67157;SHT31;54086;50.126;8.710;2023-12-28T08:38:19;9.32;93.73
67157;SHT31;54086;50.126;8.710;2023-12-28T08:40:44;9.32;93.64
67157;SHT31;54086;50.126;8.710;2023-12-28T08:43:10;9.35;93.72
67157;SHT31;54086;50.126;8.710;2023-12-28T08:45:35;9.29;93.78
67157;SHT31;54086;50.126;8.710;2023-12-28T08:48:01;9.30;93.90
67157;SHT31;54086;50.126;8.710;2023-12-28T08:50:27;9.36;93.86
67157;SHT31;54086;50.126;8.710;2023-12-28T08:52:52;9.35;93.88
67157;SHT31;54086;50.126;8.710;2023-12-28T08:55:17;9.33;93.95
67157;SHT31;54086;50.126;8.710;2023-12-28T08:57:43;9.33;93.91
67157;SHT31;54086;50.126;8.710;2023-12-28T09:00:09;9.35;93.85
67157;SHT31;54086;50.126;8.710;2023-12-28T09:02:35;9.39;93.75
67157;SHT31;54086;50.126;8.710;2023-12-28T09:05:00;9.36;93.84
67157;SHT31;54086;50.126;8.710;2023-12-28T09:07:26;9.39;93.83
67157;SHT31;54086;50.126;8.710;2023-12-28T09:09:52;9.42;93.67
67157;SHT31;54086;50.126;8.710;2023-12-28T09:12:17;9.44;93.78
67157;SHT31;54086;50.126;8.710;2023-12-28T09:14:42;9.50;93.56
67157;SHT31;54086;50.126;8.710;2023-12-28T09:17:08;9.60;93.39
67157;SHT31;54086;50.126;8.710;2023-12-28T09:19:33;9.66;93.20
67157;SHT31;54086;50.126;8.710;2023-12-28T09:21:59;9.71;92.85
67157;SHT31;54086;50.126;8.710;2023-12-28T09:24:24;9.67;92.99
67157;SHT31;54086;50.126;8.710;2023-12-28T09:29:29;9.77;92.66
67157;SHT31;54086;50.126;8.710;2023-12-28T09:31:55;9.86;92.39
67157;SHT31;54086;50.126;8.710;2023-12-28T09:34:20;9.91;92.08
67157;SHT31;54086;50.126;8.710;2023-12-28T09:36:45;10.07;91.77
67157;SHT31;54086;50.126;8.710;2023-12-28T09:39:11;9.95;91.80
67157;SHT31;54086;50.126;8.710;2023-12-28T09:41:39;9.98;91.83
67157;SHT31;54086;50.126;8.710;2023-12-28T09:44:11;9.93;91.85
67157;SHT31;54086;50.126;8.710;2023-12-28T09:46:36;9.90;91.70
67157;SHT31;54086;50.126;8.710;2023-12-28T09:49:04;9.86;91.77
67157;SHT31;54086;50.126;8.710;2023-12-28T09:51:29;9.87;91.83
67157;SHT31;54086;50.126;8.710;2023-12-28T09:53:56;10.00;91.54
67157;SHT31;54086;50.126;8.710;2023-12-28T09:56:22;10.05;91.24
67157;SHT31;54086;50.126;8.710;2023-12-28T09:58:49;10.10;91.04
67157;SHT31;54086;50.126;8.710;2023-12-28T10:01:17;10.05;91.04
67157;SHT31;54086;50.126;8.710;2023-12-28T10:03:43;10.10;90.91
67157;SHT31;54086;50.126;8.710;2023-12-28T10:06:08;10.08;90.75
67157;SHT31;54086;50.126;8.710;2023-12-28T10:08:34;10.19;90.65
67157;SHT31;54086;50.126;8.710;2023-12-28T10:11:02;10.24;90.27
67157;SHT31;54086;50.126;8.710;2023-12-28T10:13:27;10.39;89.92
67157;SHT31;54086;50.126;8.710;2023-12-28T10:15:57;10.48;89.39
67157;SHT31;54086;50.126;8.710;2023-12-28T10:18:23;10.60;89.16
67157;SHT31;54086;50.126;8.710;2023-12-28T10:20:53;10.73;88.54
67157;SHT31;54086;50.126;8.710;2023-12-28T10:23:19;10.84;88.07
67157;SHT31;54086;50.126;8.710;2023-12-28T10:25:46;11.00;87.55
67157;SHT31;54086;50.126;8.710;2023-12-28T10:28:11;11.09;87.25
67157;SHT31;54086;50.126;8.710;2023-12-28T10:30:40;11.10;86.77
67157;SHT31;54086;50.126;8.710;2023-12-28T10:33:06;10.93;86.71
67157;SHT31;54086;50.126;8.710;2023-12-28T10:35:32;11.07;86.54
67157;SHT31;54086;50.126;8.710;2023-12-28T10:38:00;11.07;86.44
67157;SHT31;54086;50.126;8.710;2023-12-28T10:40:26;11.21;85.89
67157;SHT31;54086;50.126;8.710;2023-12-28T10:42:58;11.23;85.78
67157;SHT31;54086;50.126;8.710;2023-12-28T10:45:29;11.20;85.87
67157;SHT31;54086;50.126;8.710;2023-12-28T10:48:06;11.16;85.89
67157;SHT31;54086;50.126;8.710;2023-12-28T10:51:01;11.24;85.69
67157;SHT31;54086;50.126;8.710;2023-12-28T10:59:09;11.17;85.71
67157;SHT31;54086;50.126;8.710;2023-12-28T11:01:41;11.03;85.86
67157;SHT31;54086;50.126;8.710;2023-12-28T11:06:51;11.26;85.04
67157;SHT31;54086;50.126;8.710;2023-12-28T11:09:18;11.32;84.97
67157;SHT31;54086;50.126;8.710;2023-12-28T11:11:46;11.30;84.73
67157;SHT31;54086;50.126;8.710;2023-12-28T11:14:17;11.39;84.43
67157;SHT31;54086;50.126;8.710;2023-12-28T11:16:43;11.42;84.37
67157;SHT31;54086;50.126;8.710;2023-12-28T11:19:10;11.41;84.45
67157;SHT31;54086;50.126;8.710;2023-12-28T11:21:37;11.50;84.23
67157;SHT31;54086;50.126;8.710;2023-12-28T11:24:04;11.54;84.16
67157;SHT31;54086;50.126;8.710;2023-12-28T11:26:30;11.55;84.16
67157;SHT31;54086;50.126;8.710;2023-12-28T11:29:03;11.65;83.88
67157;SHT31;54086;50.126;8.710;2023-12-28T11:31:32;11.68;83.80
67157;SHT31;54086;50.126;8.710;2023-12-28T11:34:00;11.59;83.81
67157;SHT31;54086;50.126;8.710;2023-12-28T11:36:34;11.62;84.04
67157;SHT31;54086;50.126;8.710;2023-12-28T11:39:05;11.58;83.92
67157;SHT31;54086;50.126;8.710;2023-12-28T11:41:35;11.74;83.85
67157;SHT31;54086;50.126;8.710;2023-12-28T11:44:02;11.72;83.44
67157;SHT31;54086;50.126;8.710;2023-12-28T11:46:30;11.65;83.62
67157;SHT31;54086;50.126;8.710;2023-12-28T11:49:06;11.65;83.88
67157;SHT31;54086;50.126;8.710;2023-12-28T11:51:34;11.69;83.65
67157;SHT31;54086;50.126;8.710;2023-12-28T11:54:01;11.78;83.35
67157;SHT31;54086;50.126;8.710;2023-12-28T11:56:29;11.54;83.56
67157;SHT31;54086;50.126;8.710;2023-12-28T11:58:54;11.64;83.65
67157;SHT31;54086;50.126;8.710;2023-12-28T12:01:19;11.52;83.59
67157;SHT31;54086;50.126;8.710;2023-12-28T12:03:45;11.61;83.44
67157;SHT31;54086;50.126;8.710;2023-12-28T12:06:10;11.50;83.41
67157;SHT31;54086;50.126;8.710;2023-12-28T12:08:36;11.48;82.91
67157;SHT31;54086;50.126;8.710;2023-12-28T12:11:02;11.48;83.25
67157;SHT31;54086;50.126;8.710;2023-12-28T12:13:30;11.50;83.34
67157;SHT31;54086;50.126;8.710;2023-12-28T12:15:56;11.61;83.05
67157;SHT31;54086;50.126;8.710;2023-12-28T12:18:22;11.47;82.89
67157;SHT31;54086;50.126;8.710;2023-12-28T12:20:49;11.59;82.46
67157;SHT31;54086;50.126;8.710;2023-12-28T12:23:15;11.59;82.23
67157;SHT31;54086;50.126;8.710;2023-12-28T12:25:41;11.58;81.94
67157;SHT31;54086;50.126;8.710;2023-12-28T12:28:06;11.67;81.78
67157;SHT31;54086;50.126;8.710;2023-12-28T12:30:32;11.67;81.98
67157;SHT31;54086;50.126;8.710;2023-12-28T12:32:58;11.59;82.13
67157;SHT31;54086;50.126;8.710;2023-12-28T12:35:24;11.59;82.20
67157;SHT31;54086;50.126;8.710;2023-12-28T12:37:49;11.71;82.21
67157;SHT31;54086;50.126;8.710;2023-12-28T12:40:17;11.74;82.02
67157;SHT31;54086;50.126;8.710;2023-12-28T12:42:52;11.71;82.21
67157;SHT31;54086;50.126;8.710;2023-12-28T12:45:18;11.79;82.18
67157;SHT31;54086;50.126;8.710;2023-12-28T12:47:43;11.72;82.15
67157;SHT31;54086;50.126;8.710;2023-12-28T12:50:09;11.82;82.19
67157;SHT31;54086;50.126;8.710;2023-12-28T12:52:36;11.79;82.24
67157;SHT31;54086;50.126;8.710;2023-12-28T12:55:01;11.74;82.44
67157;SHT31;54086;50.126;8.710;2023-12-28T12:57:27;11.79;82.48
67157;SHT31;54086;50.126;8.710;2023-12-28T12:59:56;11.68;82.64
67157;SHT31;54086;50.126;8.710;2023-12-28T13:02:25;11.68;82.88
67157;SHT31;54086;50.126;8.710;2023-12-28T13:04:52;11.68;83.01
67157;SHT31;54086;50.126;8.710;2023-12-28T13:07:21;11.65;83.07
67157;SHT31;54086;50.126;8.710;2023-12-28T13:09:46;11.67;83.34
67157;SHT31;54086;50.126;8.710;2023-12-28T13:12:12;11.61;83.52
67157;SHT31;54086;50.126;8.710;2023-12-28T13:14:37;11.71;83.45
67157;SHT31;54086;50.126;8.710;2023-12-28T13:17:03;11.71;83.39
67157;SHT31;54086;50.126;8.710;2023-12-28T13:19:28;11.61;83.75
67157;SHT31;54086;50.126;8.710;2023-12-28T13:21:54;11.71;83.61
67157;SHT31;54086;50.126;8.710;2023-12-28T13:24:19;11.71;83.86
67157;SHT31;54086;50.126;8.710;2023-12-28T13:26:45;11.69;83.88
67157;SHT31;54086;50.126;8.710;2023-12-28T13:29:10;11.72;83.99
67157;SHT31;54086;50.126;8.710;2023-12-28T13:31:36;11.61;84.32
67157;SHT31;54086;50.126;8.710;2023-12-28T13:34:01;11.61;84.71
67157;SHT31;54086;50.126;8.710;2023-12-28T13:36:26;11.61;84.76
67157;SHT31;54086;50.126;8.710;2023-12-28T13:38:53;11.69;84.78
67157;SHT31;54086;50.126;8.710;2023-12-28T13:41:19;11.65;85.09
67157;SHT31;54086;50.126;8.710;2023-12-28T13:43:44;11.54;85.38
67157;SHT31;54086;50.126;8.710;2023-12-28T13:46:10;11.35;86.01
67157;SHT31;54086;50.126;8.710;2023-12-28T13:48:35;11.31;86.30
67157;SHT31;54086;50.126;8.710;2023-12-28T13:51:04;11.30;86.51
67157;SHT31;54086;50.126;8.710;2023-12-28T13:53:30;11.20;86.94
67157;SHT31;54086;50.126;8.710;2023-12-28T13:55:56;11.16;87.20
67157;SHT31;54086;50.126;8.710;2023-12-28T13:58:22;11.17;87.40
67157;SHT31;54086;50.126;8.710;2023-12-28T14:00:47;11.20;87.48
67157;SHT31;54086;50.126;8.710;2023-12-28T14:03:12;11.20;87.66
67157;SHT31;54086;50.126;8.710;2023-12-28T14:05:38;11.21;87.65
67157;SHT31;54086;50.126;8.710;2023-12-28T14:08:04;11.18;87.88
67157;SHT31;54086;50.126;8.710;2023-12-28T14:10:29;11.14;88.00
67157;SHT31;54086;50.126;8.710;2023-12-28T14:12:55;11.14;88.24
67157;SHT31;54086;50.126;8.710;2023-12-28T14:15:20;11.01;88.89
67157;SHT31;54086;50.126;8.710;2023-12-28T14:17:46;11.03;88.89
67157;SHT31;54086;50.126;8.710;2023-12-28T14:20:11;10.99;89.11
67157;SHT31;54086;50.126;8.710;2023-12-28T14:22:38;10.96;89.45
67157;SHT31;54086;50.126;8.710;2023-12-28T14:25:04;10.89;89.66
67157;SHT31;54086;50.126;8.710;2023-12-28T14:27:30;10.86;89.83
67157;SHT31;54086;50.126;8.710;2023-12-28T14:29:56;10.87;89.99
67157;SHT31;54086;50.126;8.710;2023-12-28T14:32:22;10.77;90.38
67157;SHT31;54086;50.126;8.710;2023-12-28T14:34:48;10.79;90.69
67157;SHT31;54086;50.126;8.710;2023-12-28T14:37:13;10.75;90.93
67157;SHT31;54086;50.126;8.710;2023-12-28T14:39:39;10.73;91.02
67157;SHT31;54086;50.126;8.710;2023-12-28T14:42:04;10.73;91.02
67157;SHT31;54086;50.126;8.710;2023-12-28T14:44:30;10.62;91.69
67157;SHT31;54086;50.126;8.710;2023-12-28T14:46:55;10.56;92.17
67157;SHT31;54086;50.126;8.710;2023-12-28T14:49:21;10.48;92.62
67157;SHT31;54086;50.126;8.710;2023-12-28T14:51:46;10.48;93.00
67157;SHT31;54086;50.126;8.710;2023-12-28T14:54:11;10.38;93.52
67157;SHT31;54086;50.126;8.710;2023-12-28T14:56:37;10.44;93.58
67157;SHT31;54086;50.126;8.710;2023-12-28T14:59:03;10.39;93.79
67157;SHT31;54086;50.126;8.710;2023-12-28T15:01:28;10.44;93.68
67157;SHT31;54086;50.126;8.710;2023-12-28T15:03:53;10.46;93.76
67157;SHT31;54086;50.126;8.710;2023-12-28T15:06:19;10.49;93.81
67157;SHT31;54086;50.126;8.710;2023-12-28T15:08:44;10.50;93.88
67157;SHT31;54086;50.126;8.710;2023-12-28T15:11:10;10.39;94.27
67157;SHT31;54086;50.126;8.710;2023-12-28T15:13:39;10.37;94.39
67157;SHT31;54086;50.126;8.710;2023-12-28T15:16:05;10.35;94.69
67157;SHT31;54086;50.126;8.710;2023-12-28T15:18:31;10.32;94.81
67157;SHT31;54086;50.126;8.710;2023-12-28T15:20:57;10.34;94.78
67157;SHT31;54086;50.126;8.710;2023-12-28T15:23:23;10.31;94.93
67157;SHT31;54086;50.126;8.710;2023-12-28T15:25:49;10.25;95.04
67157;SHT31;54086;50.126;8.710;2023-12-28T15:28:15;10.21;94.90
67157;SHT31;54086;50.126;8.710;2023-12-28T15:30:40;10.21;94.97
67157;SHT31;54086;50.126;8.710;2023-12-28T15:33:06;10.25;94.86
67157;SHT31;54086;50.126;8.710;2023-12-28T15:35:31;10.21;95.03
67157;SHT31;54086;50.126;8.710;2023-12-28T15:37:57;10.15;95.19
67157;SHT31;54086;50.126;8.710;2023-12-28T15:40:22;10.12;95.15
67157;SHT31;54086;50.126;8.710;2023-12-28T15:42:49;10.14;95.21
67157;SHT31;54086;50.126;8.710;2023-12-28T15:45:15;10.08;95.14